Time;durP1;ratioP1;P1;durP2;ratioP2;P2;SDS_P1;SDS_P2;PMS_P1;PMS_P2;Temp;Humidity;BMP_temperature;BMP_pressure;BME280_temperature;BME280_humidity;BME280_pressure;Samples;Min_cycle;Max_cycle;Signal;HPM_P1;HPM_P2
2023/12/24 00:02:21;;;;;;;6.30;5.73;;;;;;;-144.30;73.63;86340.84;5110604;28;20205;-56
2023/12/24 00:04:50;;;;;;;11.73;6.03;;;;;;;-144.30;73.12;86326.91;5110861;28;20281;-58
2023/12/24 00:07:16;;;;;;;6.30;5.70;;;;;;;-144.30;73.01;86322.94;5110910;28;20218;-58
2023/12/24 00:09:43;;;;;;;7.53;6.50;;;;;;;-144.30;72.72;86344.81;5110588;28;20195;-57
2023/12/24 00:12:10;;;;;;;6.20;5.33;;;;;;;-144.30;73.11;86318.97;5110779;28;20594;-56
2023/12/24 00:14:37;;;;;;;6.40;5.50;;;;;;;-144.30;73.09;86328.91;5110799;28;20224;-58
2023/12/24 00:17:04;;;;;;;6.40;5.80;;;;;;;-144.30;72.73;86307.03;5110909;28;20193;-57
2023/12/24 00:19:33;;;;;;;7.10;5.80;;;;;;;-144.30;72.86;86311.00;5110877;28;20190;-59
2023/12/24 00:22:00;;;;;;;7.10;5.60;;;;;;;-144.30;73.00;86283.16;5110337;28;20289;-59
2023/12/24 00:24:27;;;;;;;5.63;4.40;;;;;;;-144.30;72.48;86330.88;5110634;28;20201;-57
2023/12/24 00:26:53;;;;;;;6.63;4.20;;;;;;;-144.30;72.24;86295.09;5110297;28;20224;-56
2023/12/24 00:29:20;;;;;;;5.00;4.50;;;;;;;-144.30;71.97;86279.19;5111072;28;20726;-58
2023/12/24 00:31:47;;;;;;;4.67;4.13;;;;;;;-144.30;71.74;86297.09;5110442;28;20681;-57
2023/12/24 00:34:14;;;;;;;5.60;3.97;;;;;;;-144.30;71.76;86251.34;5110615;28;20678;-56
2023/12/24 00:36:43;;;;;;;5.83;4.47;;;;;;;-144.30;71.53;86281.19;5110315;28;20758;-56
2023/12/24 00:39:10;;;;;;;5.83;3.97;;;;;;;-144.30;71.45;86263.28;5110187;28;20197;-57
2023/12/24 00:41:39;;;;;;;4.23;3.83;;;;;;;-144.30;71.90;86281.19;5110103;28;20234;-57
2023/12/24 00:44:06;;;;;;;5.37;3.67;;;;;;;-144.30;71.77;86255.34;5110191;28;20202;-58
2023/12/24 00:46:33;;;;;;;3.93;3.63;;;;;;;-144.30;71.84;86251.34;5110372;28;20229;-58
2023/12/24 00:49:00;;;;;;;4.00;3.40;;;;;;;-144.30;72.38;86247.38;5110171;28;20576;-57
2023/12/24 00:51:27;;;;;;;9.40;4.07;;;;;;;-144.30;72.59;86203.63;5110305;28;20205;-57
2023/12/24 00:53:55;;;;;;;3.87;3.53;;;;;;;-144.30;73.35;86259.31;5109935;28;20210;-57
2023/12/24 00:56:22;;;;;;;4.00;3.37;;;;;;;-144.30;73.18;86251.34;5109907;28;20199;-58
2023/12/24 00:58:49;;;;;;;4.37;3.77;;;;;;;-144.30;73.29;86263.28;5110083;28;20591;-58
2023/12/24 01:01:16;;;;;;;5.20;3.60;;;;;;;-144.30;73.70;86231.47;5110191;28;20576;-56
2023/12/24 01:03:43;;;;;;;3.77;3.43;;;;;;;-144.30;74.11;86249.38;5109645;28;20191;-57
2023/12/24 01:06:10;;;;;;;4.33;3.60;;;;;;;-144.30;74.12;86219.53;5109961;28;20608;-57
2023/12/24 01:08:37;;;;;;;6.60;3.37;;;;;;;-144.30;74.46;86195.69;5109778;28;20190;-58
2023/12/24 01:11:06;;;;;;;4.77;3.40;;;;;;;-144.30;74.26;86215.56;5109656;28;20592;-58
2023/12/24 01:13:32;;;;;;;4.43;3.30;;;;;;;-144.30;74.44;86211.59;5108886;28;20205;-57
2023/12/24 01:16:00;;;;;;;3.40;2.97;;;;;;;-144.30;73.84;86227.50;5109948;28;20567;-56
2023/12/24 01:18:28;;;;;;;3.37;2.90;;;;;;;-144.30;73.85;86185.72;5109865;28;20195;-56
2023/12/24 01:20:56;;;;;;;3.33;3.03;;;;;;;-144.30;73.29;86227.50;5109451;28;20259;-57
2023/12/24 01:23:23;;;;;;;2.67;2.47;;;;;;;-144.30;73.29;86191.69;5109941;28;20197;-56
2023/12/24 01:25:51;;;;;;;6.33;3.27;;;;;;;-144.30;73.12;86239.44;5109487;28;20202;-58
2023/12/24 01:28:20;;;;;;;4.80;3.13;;;;;;;-144.30;72.61;86251.34;5109546;28;20222;-58
2023/12/24 01:30:47;;;;;;;3.60;2.80;;;;;;;-144.30;72.71;86183.75;5109514;28;20708;-59
2023/12/24 01:33:13;;;;;;;2.70;2.50;;;;;;;-144.30;71.93;86215.56;5109695;28;20293;-58
2023/12/24 01:35:43;;;;;;;4.30;2.70;;;;;;;-144.30;72.39;86163.88;5109795;28;20208;-57
2023/12/24 01:38:10;;;;;;;5.03;2.50;;;;;;;-144.30;72.01;86145.97;5109470;28;20191;-56
2023/12/24 01:40:37;;;;;;;3.17;2.67;;;;;;;-144.30;71.83;86199.66;5109737;28;20644;-57
2023/12/24 01:43:04;;;;;;;3.50;3.20;;;;;;;-144.30;71.78;86169.81;5109483;28;20313;-56
2023/12/24 01:45:33;;;;;;;2.67;2.47;;;;;;;-144.30;71.73;86159.88;5109887;28;20289;-57
2023/12/24 01:47:59;;;;;;;3.33;2.50;;;;;;;-144.30;71.30;86159.88;5109307;28;20226;-57
2023/12/24 01:50:27;;;;;;;3.50;2.50;;;;;;;-144.30;71.40;86145.97;5109668;28;20198;-58
2023/12/24 01:52:54;;;;;;;3.00;2.70;;;;;;;-144.30;70.92;86155.91;5109172;28;20198;-57
2023/12/24 01:55:24;;;;;;;3.00;2.70;;;;;;;-144.30;70.78;86114.16;5109577;28;20201;-56
2023/12/24 01:57:51;;;;;;;4.70;2.73;;;;;;;-144.30;70.43;86155.91;5109360;28;20709;-56
2023/12/24 02:00:19;;;;;;;5.17;2.40;;;;;;;-144.30;69.90;86177.78;5109918;28;20277;-59
2023/12/24 02:02:50;;;;;;;2.83;2.40;;;;;;;-144.30;69.82;86120.13;5109239;28;20201;-58
2023/12/24 02:05:17;;;;;;;3.60;2.70;;;;;;;-144.30;69.73;86195.69;5109968;28;20671;-57
2023/12/24 02:07:47;;;;;;;3.30;2.50;;;;;;;-144.30;69.52;86132.06;5109444;28;20654;-55
2023/12/24 02:10:14;;;;;;;2.73;2.53;;;;;;;-144.30;69.42;86147.97;5109066;28;20191;-57
2023/12/24 02:12:41;;;;;;;3.37;2.87;;;;;;;-144.30;69.37;86159.88;5109301;28;20285;-58
2023/12/24 02:15:09;;;;;;;5.47;2.70;;;;;;;-144.30;69.39;86165.84;5109382;28;20205;-56
2023/12/24 02:17:37;;;;;;;5.53;2.77;;;;;;;-144.30;69.31;86128.06;5109441;28;20197;-56
2023/12/24 02:20:06;;;;;;;2.80;2.50;;;;;;;-144.30;69.03;86096.25;5109443;28;20201;-57
2023/12/24 02:22:35;;;;;;;4.07;2.70;;;;;;;-144.30;69.07;86134.03;5109471;28;20633;-57
2023/12/24 02:25:02;;;;;;;5.70;2.97;;;;;;;-144.30;69.01;86195.69;5110864;28;20697;-56
2023/12/24 02:27:37;;;;;;;2.50;2.30;;;;;;;-144.30;68.79;86169.81;5112765;28;20632;-59
2023/12/24 02:30:11;;;;;;;5.50;3.10;;;;;;;-144.30;68.67;86159.88;5112917;28;20194;-57
2023/12/24 02:32:40;;;;;;;4.03;2.50;;;;;;;-144.30;68.57;86120.13;5112826;28;20200;-57
2023/12/24 02:35:09;;;;;;;3.30;2.67;;;;;;;-144.30;68.78;86140.00;5112778;28;20194;-57
2023/12/24 02:37:38;;;;;;;8.03;2.80;;;;;;;-144.30;68.50;86167.84;5112410;28;20205;-56
2023/12/24 02:40:06;;;;;;;8.87;2.33;;;;;;;-144.30;68.25;86159.88;5112643;28;20593;-58
2023/12/24 02:42:33;;;;;;;4.47;2.77;;;;;;;-144.30;67.97;86134.03;5112664;28;20230;-56
2023/12/24 02:45:00;;;;;;;5.37;3.13;;;;;;;-144.30;67.40;86116.16;5112236;28;20209;-57
2023/12/24 02:47:27;;;;;;;4.17;2.30;;;;;;;-144.30;67.46;86118.13;5112576;28;20225;-57
2023/12/24 02:49:54;;;;;;;2.93;2.23;;;;;;;-144.30;67.12;86116.16;5112500;28;20204;-57
2023/12/24 02:52:20;;;;;;;2.23;2.13;;;;;;;-144.30;66.80;86112.16;5112462;28;20195;-58
2023/12/24 02:54:49;;;;;;;3.00;2.60;;;;;;;-144.30;66.66;86163.88;5112428;28;20198;-57
2023/12/24 02:57:16;;;;;;;3.50;2.80;;;;;;;-144.30;66.50;86454.19;5112271;28;20281;-57
2023/12/24 02:59:43;;;;;;;3.07;2.80;;;;;;;-144.30;66.29;86124.09;5112029;28;20203;-57
2023/12/24 03:02:10;;;;;;;4.50;2.40;;;;;;;-144.30;65.73;86094.28;5112338;28;20191;-56
2023/12/24 03:04:37;;;;;;;6.03;3.30;;;;;;;-144.30;65.77;86151.94;5112885;28;20269;-58
2023/12/24 03:07:04;;;;;;;2.27;2.07;;;;;;;-144.30;65.52;86082.34;5112297;28;20237;-56
2023/12/24 03:09:31;;;;;;;4.20;2.60;;;;;;;-144.30;65.08;86147.97;5112114;28;20209;-57
2023/12/24 03:12:00;;;;;;;2.93;2.60;;;;;;;-144.30;64.88;86124.09;5111969;28;20285;-58
2023/12/24 03:14:27;;;;;;;4.57;2.40;;;;;;;-144.30;64.69;86108.19;5112034;28;20201;-57
2023/12/24 03:16:55;;;;;;;2.87;2.30;;;;;;;-144.30;64.84;86140.00;5111855;28;20198;-57
2023/12/24 03:19:21;;;;;;;2.77;2.50;;;;;;;-144.30;64.57;86132.06;5112157;28;20243;-57
2023/12/24 03:21:48;;;;;;;7.07;2.57;;;;;;;-144.30;64.63;86128.06;5111700;28;20199;-57
2023/12/24 03:24:15;;;;;;;4.60;2.70;;;;;;;-144.30;65.35;86171.81;5111838;28;20197;-58
2023/12/24 03:26:42;;;;;;;5.20;2.60;;;;;;;-144.30;65.27;86147.97;5111990;28;20220;-57
2023/12/24 03:29:13;;;;;;;3.77;2.30;;;;;;;-144.30;65.30;86159.88;5111892;28;20214;-59
2023/12/24 03:31:40;;;;;;;3.70;2.47;;;;;;;-144.30;65.37;86140.00;5111650;28;20686;-56
2023/12/24 03:34:07;;;;;;;3.07;2.63;;;;;;;-144.30;65.40;86159.88;5111881;28;20274;-57
2023/12/24 03:36:33;;;;;;;2.30;2.00;;;;;;;-144.30;65.15;86147.97;5110574;28;20201;-56
2023/12/24 03:39:01;;;;;;;2.40;2.20;;;;;;;-144.30;65.08;86134.03;5111324;28;20681;-58
2023/12/24 03:41:28;;;;;;;7.20;2.30;;;;;;;-144.30;64.89;86120.13;5111352;28;20225;-57
2023/12/24 03:43:55;;;;;;;2.93;1.90;;;;;;;-144.30;64.69;86138.00;5111394;28;20201;-57
2023/12/24 03:46:23;;;;;;;2.93;1.93;;;;;;;-144.30;64.83;86179.78;5111494;28;20578;-58
2023/12/24 03:48:50;;;;;;;2.20;2.00;;;;;;;-144.30;64.37;86142.00;5110995;28;20219;-57
2023/12/24 03:51:18;;;;;;;4.93;2.00;;;;;;;-144.30;64.62;86161.88;5111076;28;20191;-58
2023/12/24 03:53:45;;;;;;;1.87;1.73;;;;;;;-144.30;64.47;86171.81;5110930;28;20191;-57
2023/12/24 03:56:12;;;;;;;2.30;1.77;;;;;;;-144.30;64.39;86165.84;5111406;28;20239;-57
2023/12/24 03:58:39;;;;;;;2.73;1.73;;;;;;;-144.30;63.93;86159.88;5111311;28;20555;-58
2023/12/24 04:01:08;;;;;;;2.13;1.80;;;;;;;-144.30;63.68;86219.53;5111150;28;20191;-59
2023/12/24 04:03:37;;;;;;;5.20;2.77;;;;;;;-144.30;63.60;85969.00;5111242;28;20198;-57
2023/12/24 04:06:10;;;;;;;1.40;1.30;;;;;;;-144.30;63.48;86120.13;5110739;28;20195;-56
2023/12/24 04:08:37;;;;;;;2.43;1.60;;;;;;;-144.30;63.41;86191.69;5111158;28;20219;-57
2023/12/24 04:11:11;;;;;;;1.60;1.50;;;;;;;-144.30;63.17;86167.84;5110951;28;20684;-58
2023/12/24 04:13:38;;;;;;;1.60;1.20;;;;;;;-144.30;63.12;86153.91;5111203;28;20205;-58
2023/12/24 04:16:05;;;;;;;2.53;1.40;;;;;;;-144.30;62.63;86169.81;5110748;28;20195;-58
2023/12/24 04:18:32;;;;;;;2.23;1.60;;;;;;;-144.30;63.05;86197.66;5111142;28;20667;-57
2023/12/24 04:21:01;;;;;;;3.63;1.20;;;;;;;-144.30;62.90;86191.69;5110781;28;20242;-58
2023/12/24 04:23:28;;;;;;;1.57;1.47;;;;;;;-144.30;62.66;86163.88;5110816;28;20202;-57
2023/12/24 04:25:55;;;;;;;2.17;1.80;;;;;;;-144.30;62.49;86205.63;5110596;28;20202;-61
2023/12/24 04:28:22;;;;;;;1.33;1.23;;;;;;;-144.30;62.32;86177.78;5110601;28;20214;-57
2023/12/24 04:30:48;;;;;;;5.20;1.40;;;;;;;-144.30;62.06;86140.00;5110529;28;20199;-57
2023/12/24 04:33:15;;;;;;;1.30;1.20;;;;;;;-144.30;61.84;85990.88;5110502;28;20199;-58
2023/12/24 04:35:44;;;;;;;2.70;1.70;;;;;;;-144.30;62.08;86181.75;5110617;28;20357;-58
2023/12/24 04:38:13;;;;;;;1.50;1.40;;;;;;;-144.30;61.86;86130.06;5110674;28;20281;-57
2023/12/24 04:40:40;;;;;;;1.40;1.30;;;;;;;-144.30;61.79;86118.13;5110609;28;20198;-57
2023/12/24 04:43:07;;;;;;;1.30;1.20;;;;;;;-144.30;61.71;86195.69;5110383;28;20582;-56
2023/12/24 04:45:34;;;;;;;1.70;1.60;;;;;;;-144.30;61.71;86132.06;5110403;28;20195;-58
2023/12/24 04:48:03;;;;;;;2.07;1.43;;;;;;;-144.30;61.60;86143.97;5109746;28;20225;-58
2023/12/24 04:50:30;;;;;;;1.30;1.20;;;;;;;-144.30;61.47;86110.19;5110413;28;20642;-57
2023/12/24 04:52:57;;;;;;;3.40;1.43;;;;;;;-144.30;61.25;86175.78;5110277;28;20198;-58
2023/12/24 04:55:25;;;;;;;2.20;1.60;;;;;;;-144.30;61.33;86155.91;5109989;28;20200;-56
2023/12/24 04:57:52;;;;;;;1.50;1.23;;;;;;;-144.30;61.21;86138.00;5109951;28;20270;-57
2023/12/24 05:00:19;;;;;;;1.50;1.40;;;;;;;-144.30;61.04;86116.16;5110198;28;20201;-57
2023/12/24 05:02:46;;;;;;;1.20;1.10;;;;;;;-144.30;60.55;86149.94;5110161;28;20187;-57
2023/12/24 05:05:13;;;;;;;3.47;1.30;;;;;;;-144.30;60.41;86110.19;5110178;28;20190;-58
2023/12/24 05:07:40;;;;;;;1.97;1.30;;;;;;;-144.30;61.47;86096.25;5110186;28;20581;-58
2023/12/24 05:10:08;;;;;;;4.73;1.30;;;;;;;-144.30;60.25;86116.16;5109680;28;20230;-58
2023/12/24 05:12:36;;;;;;;1.30;1.20;;;;;;;-144.30;59.97;86116.16;5103580;28;20208;-58
2023/12/24 05:15:03;;;;;;;1.73;1.30;;;;;;;-144.30;60.38;86104.22;5108877;28;20198;-56
2023/12/24 05:17:30;;;;;;;2.23;1.10;;;;;;;-144.30;59.80;86094.28;5109512;28;20220;-57
2023/12/24 05:19:57;;;;;;;2.60;1.60;;;;;;;-144.30;59.34;86112.16;5109477;28;20204;-58
2023/12/24 05:22:24;;;;;;;4.30;1.33;;;;;;;-144.30;59.27;86076.38;5109771;28;20601;-58
2023/12/24 05:24:51;;;;;;;2.33;1.30;;;;;;;-144.30;58.88;86076.38;5109580;28;20310;-58
2023/12/24 05:27:18;;;;;;;6.23;1.40;;;;;;;-144.30;58.86;86060.47;5108993;28;20214;-58
2023/12/24 05:29:46;;;;;;;2.13;1.30;;;;;;;-144.30;58.88;86106.19;5109162;28;20482;-56
2023/12/24 05:32:13;;;;;;;1.10;1.00;;;;;;;-144.30;59.04;86118.13;5109767;28;20198;-57
2023/12/24 05:34:40;;;;;;;2.03;1.17;;;;;;;-144.30;59.32;86094.28;5109805;28;20264;-57
2023/12/24 05:37:06;;;;;;;1.13;1.07;;;;;;;-144.30;59.46;86078.38;5109578;28;20383;-57
2023/12/24 05:39:33;;;;;;;2.97;1.20;;;;;;;-144.30;59.61;86090.28;5109561;28;20596;-58
2023/12/24 05:42:00;;;;;;;1.53;1.40;;;;;;;-144.30;59.73;86120.13;5108270;28;20232;-58
2023/12/24 05:44:27;;;;;;;5.20;1.63;;;;;;;-144.30;59.97;86126.09;5109570;28;20736;-58
2023/12/24 05:46:55;;;;;;;1.60;1.43;;;;;;;-144.30;59.95;86112.16;5109559;28;20284;-58
2023/12/24 05:49:22;;;;;;;1.33;1.20;;;;;;;-144.30;60.07;86098.25;5109225;28;20214;-58
2023/12/24 05:51:50;;;;;;;1.00;1.00;;;;;;;-144.30;60.11;86124.09;5109322;28;20718;-58
2023/12/24 05:54:16;;;;;;;1.40;1.30;;;;;;;-144.30;60.20;86104.22;5109910;28;20221;-56
2023/12/24 05:56:44;;;;;;;2.77;1.63;;;;;;;-144.30;60.33;86128.06;5109135;28;20326;-57
2023/12/24 05:59:11;;;;;;;2.83;1.30;;;;;;;-144.30;60.39;86124.09;5110024;28;20248;-59
2023/12/24 06:01:38;;;;;;;2.87;1.33;;;;;;;-144.30;60.62;86082.34;5112690;28;20557;-56
2023/12/24 06:04:07;;;;;;;2.73;2.00;;;;;;;-144.30;60.83;86100.25;5113272;28;20205;-57
2023/12/24 06:06:33;;;;;;;1.67;1.40;;;;;;;-144.30;60.98;86124.09;5113128;28;20199;-57
2023/12/24 06:09:00;;;;;;;1.63;1.20;;;;;;;-144.30;61.44;86116.16;5112503;28;20721;-56
2023/12/24 06:11:29;;;;;;;1.37;1.20;;;;;;;-144.30;61.67;86153.91;5108854;28;20596;-57
2023/12/24 06:13:55;;;;;;;2.07;1.43;;;;;;;-144.30;61.54;86171.81;5113441;27;20230;-56
2023/12/24 06:16:22;;;;;;;1.40;1.30;;;;;;;-144.30;61.74;86138.00;5108840;28;20199;-57
2023/12/24 06:18:49;;;;;;;1.60;1.50;;;;;;;-144.30;61.86;86157.91;5112386;28;20193;-56
2023/12/24 06:21:17;;;;;;;1.37;1.27;;;;;;;-144.30;61.86;86132.06;5112435;28;20298;-58
2023/12/24 06:23:44;;;;;;;1.30;1.20;;;;;;;-144.30;61.87;86155.91;5112481;28;20666;-56
2023/12/24 06:26:11;;;;;;;1.60;1.37;;;;;;;-144.30;61.83;86140.00;5112639;28;20586;-58
2023/12/24 06:28:38;;;;;;;1.50;1.40;;;;;;;-144.30;62.02;86102.22;5112929;28;20218;-58
2023/12/24 06:31:05;;;;;;;1.60;1.50;;;;;;;-144.30;61.97;86100.25;5112681;28;20198;-58
2023/12/24 06:33:32;;;;;;;3.57;1.57;;;;;;;-144.30;61.71;86100.25;5112895;28;20197;-56
2023/12/24 06:35:59;;;;;;;1.70;1.60;;;;;;;-144.30;61.69;86122.09;5113158;28;20221;-58
2023/12/24 06:38:27;;;;;;;6.67;1.47;;;;;;;-144.30;61.64;86136.03;5113130;28;20190;-58
2023/12/24 06:40:54;;;;;;;1.40;1.30;;;;;;;-144.30;61.57;86096.25;5112426;28;20202;-57
2023/12/24 06:43:21;;;;;;;4.10;1.80;;;;;;;-144.30;61.47;86104.22;5112780;28;20686;-58
2023/12/24 06:45:48;;;;;;;4.17;3.43;;;;;;;-144.30;61.56;86094.28;5112561;28;20278;-57
2023/12/24 06:48:15;;;;;;;4.27;2.17;;;;;;;-144.30;60.86;86048.53;5112260;28;20195;-57
2023/12/24 06:50:42;;;;;;;2.10;1.70;;;;;;;-144.30;60.36;86112.16;5112821;28;20633;-58
2023/12/24 06:53:09;;;;;;;5.43;1.90;;;;;;;-144.30;60.26;86100.25;5112666;28;20731;-58
2023/12/24 06:55:37;;;;;;;2.80;1.70;;;;;;;-144.30;59.68;86032.63;5112585;28;20657;-56
2023/12/24 06:58:06;;;;;;;2.37;1.67;;;;;;;-144.30;59.35;85980.94;5112059;28;20693;-58
2023/12/24 07:00:33;;;;;;;3.47;1.80;;;;;;;-144.30;58.66;86299.06;5112430;28;20190;-58
2023/12/24 07:03:00;;;;;;;3.50;2.10;;;;;;;-144.30;58.39;85974.97;5111814;28;20191;-58
2023/12/24 07:05:28;;;;;;;2.00;1.90;;;;;;;-144.30;58.31;85976.97;5112256;28;20195;-56
2023/12/24 07:07:54;;;;;;;3.60;2.10;;;;;;;-144.30;57.65;85951.13;5112011;28;20259;-58
2023/12/24 07:10:21;;;;;;;4.63;2.70;;;;;;;-144.30;57.53;85915.31;5106995;28;20728;-59
2023/12/24 07:12:50;;;;;;;3.47;2.07;;;;;;;-144.30;57.45;85953.09;5110740;28;20255;-56
2023/12/24 07:15:17;;;;;;;5.03;2.87;;;;;;;-144.30;57.33;85917.31;5108834;28;20277;-60
2023/12/24 07:17:43;;;;;;;5.43;2.50;;;;;;;-144.30;57.57;85961.06;5108623;28;20191;-58
2023/12/24 07:20:12;;;;;;;3.67;1.90;;;;;;;-144.30;57.71;85949.13;5110910;28;20195;-59
2023/12/24 07:22:39;;;;;;;2.43;1.97;;;;;;;-144.30;57.67;85951.13;5111158;28;20191;-56
2023/12/24 07:25:06;;;;;;;3.73;2.13;;;;;;;-144.30;57.37;85939.19;5110574;28;20654;-59
2023/12/24 07:27:33;;;;;;;5.90;2.20;;;;;;;-144.30;56.84;85925.25;5111363;28;20609;-56
2023/12/24 07:30:01;;;;;;;6.53;2.17;;;;;;;-144.30;57.11;85931.22;5106123;28;20222;-57
2023/12/24 07:32:28;;;;;;;3.07;2.77;;;;;;;-144.30;56.99;85976.97;5111364;28;20570;-59
2023/12/24 07:34:57;;;;;;;2.70;2.00;;;;;;;-144.30;56.99;85951.13;5110877;28;20217;-59
2023/12/24 07:37:25;;;;;;;3.00;2.27;;;;;;;-144.30;56.73;85877.53;5110935;28;20194;-60
2023/12/24 07:39:52;;;;;;;1.83;1.73;;;;;;;-144.30;56.63;85969.00;5110271;28;20183;-58
2023/12/24 07:42:19;;;;;;;2.90;1.70;;;;;;;-144.30;56.22;85947.13;5110815;28;20226;-59
2023/12/24 07:44:47;;;;;;;1.97;1.70;;;;;;;-144.30;56.42;85937.19;5108287;28;20201;-60
2023/12/24 07:47:15;;;;;;;4.37;1.67;;;;;;;-144.30;56.34;85905.38;5110983;28;20290;-59
2023/12/24 07:49:42;;;;;;;2.60;1.47;;;;;;;-144.30;56.36;85899.41;5111028;28;20214;-59
2023/12/24 07:52:10;;;;;;;1.87;1.30;;;;;;;-144.30;56.94;85913.34;5110759;28;20191;-60
2023/12/24 07:54:36;;;;;;;4.47;1.57;;;;;;;-144.30;57.08;85901.41;5110944;28;20194;-60
2023/12/24 07:57:04;;;;;;;1.90;1.40;;;;;;;-144.30;57.11;85929.25;5111011;28;20199;-60
2023/12/24 07:59:30;;;;;;;2.20;1.37;;;;;;;-144.30;57.37;85905.38;5111553;28;20194;-59
2023/12/24 08:01:57;;;;;;;2.23;1.17;;;;;;;-144.30;56.99;85869.59;5110736;28;20206;-56
2023/12/24 08:04:26;;;;;;;2.47;1.30;;;;;;;-144.30;56.75;85869.59;5106469;28;20213;-57
2023/12/24 08:06:52;;;;;;;7.10;2.90;;;;;;;-144.30;56.46;85869.59;5110727;28;20206;-59
2023/12/24 08:09:19;;;;;;;3.70;1.43;;;;;;;-144.30;56.67;85853.69;5110589;28;20225;-59
2023/12/24 08:11:46;;;;;;;2.20;1.50;;;;;;;-144.30;56.48;85859.66;5109755;28;20210;-59
2023/12/24 08:14:13;;;;;;;1.97;1.73;;;;;;;-144.30;55.95;85853.69;5109616;28;20199;-60
2023/12/24 08:16:40;;;;;;;6.53;1.80;;;;;;;-144.30;56.14;85803.97;5109732;28;20208;-60
2023/12/24 08:19:07;;;;;;;2.53;1.77;;;;;;;-144.30;55.98;85841.75;5110647;28;20335;-59
2023/12/24 08:21:35;;;;;;;1.80;1.70;;;;;;;-144.30;55.45;85821.88;5110795;28;20191;-58
2023/12/24 08:24:02;;;;;;;1.20;1.10;;;;;;;-144.30;55.00;85807.97;5110266;28;20253;-57
2023/12/24 08:26:29;;;;;;;3.47;1.40;;;;;;;-144.30;54.64;85728.44;5110489;28;20198;-56
2023/12/24 08:28:56;;;;;;;1.63;1.40;;;;;;;-144.30;54.60;85809.94;5110274;28;20222;-55
2023/12/24 08:31:23;;;;;;;1.50;1.30;;;;;;;-144.30;54.33;85786.09;5110639;28;20206;-58
2023/12/24 08:33:50;;;;;;;3.37;2.97;;;;;;;-144.30;54.42;85750.31;5106839;28;20201;-55
2023/12/24 08:36:17;;;;;;;1.70;1.60;;;;;;;-144.30;54.12;85714.53;5110362;28;20213;-60
2023/12/24 08:38:46;;;;;;;2.90;1.20;;;;;;;-144.30;53.53;85732.41;5110361;28;20206;-59
2023/12/24 08:41:12;;;;;;;2.27;1.67;;;;;;;-144.30;53.50;85746.31;5109082;28;20260;-57
2023/12/24 08:43:39;;;;;;;4.70;3.00;;;;;;;-144.30;56.11;85746.31;5092045;28;20211;-53
2023/12/24 08:46:06;;;;;;;8.77;4.33;;;;;;;-144.30;54.77;85750.31;5090134;28;20207;-56
2023/12/24 08:48:33;;;;;;;4.70;3.20;;;;;;;-144.30;54.16;85744.34;5090091;28;20200;-55
2023/12/24 08:51:01;;;;;;;4.27;2.60;;;;;;;-144.30;54.73;85730.41;5089768;28;20233;-56
2023/12/24 08:53:28;;;;;;;6.17;2.43;;;;;;;-144.30;54.78;85772.19;5089865;28;20203;-52
2023/12/24 08:55:56;;;;;;;2.27;2.07;;;;;;;-144.30;53.79;85718.50;5088750;28;20203;-53
2023/12/24 08:58:23;;;;;;;5.87;2.07;;;;;;;-144.30;53.74;86080.34;5088964;28;20750;-52
2023/12/24 09:00:50;;;;;;;4.63;2.63;;;;;;;-144.30;53.56;85768.19;5088581;28;20187;-55
2023/12/24 09:03:18;;;;;;;3.80;2.00;;;;;;;-144.30;53.96;85758.25;5088821;28;20205;-55
2023/12/24 09:05:45;;;;;;;2.03;1.80;;;;;;;-144.30;53.51;85790.06;5089003;28;20199;-52
2023/12/24 09:08:13;;;;;;;3.03;2.10;;;;;;;-144.30;53.98;85756.28;5088828;28;20207;-54
2023/12/24 09:10:41;;;;;;;5.30;4.20;;;;;;;-144.30;53.02;85776.16;5088787;28;20250;-51
2023/12/24 09:13:09;;;;;;;3.23;2.40;;;;;;;-144.30;52.75;85724.47;5088492;28;20711;-53
2023/12/24 09:15:36;;;;;;;3.77;1.90;;;;;;;-144.30;52.99;85784.09;5088727;28;20467;-52
2023/12/24 09:18:03;;;;;;;3.90;1.70;;;;;;;-144.30;52.56;85782.13;5088815;28;20282;-52
2023/12/24 09:20:30;;;;;;;1.70;1.30;;;;;;;-144.30;52.62;85782.13;5088774;28;20192;-52
2023/12/24 09:22:57;;;;;;;7.50;1.50;;;;;;;-144.30;51.84;85770.19;5088603;28;20199;-54
2023/12/24 09:25:24;;;;;;;2.23;1.43;;;;;;;-144.30;51.86;85784.09;5088676;28;20195;-52
2023/12/24 09:27:51;;;;;;;4.73;1.33;;;;;;;-144.30;51.58;85809.94;5088234;28;20629;-51
2023/12/24 09:30:19;;;;;;;3.70;1.77;;;;;;;-144.30;51.86;85738.38;5088194;28;20312;-55
2023/12/24 09:32:46;;;;;;;1.40;1.30;;;;;;;-144.30;51.96;85792.06;5088503;28;20332;-55
2023/12/24 09:35:13;;;;;;;4.53;1.20;;;;;;;-144.30;51.96;85788.09;5091089;28;20207;-51
2023/12/24 09:37:40;;;;;;;3.33;1.03;;;;;;;-144.30;51.81;85758.25;5093038;28;20195;-52
2023/12/24 09:40:08;;;;;;;1.73;0.60;;;;;;;-144.30;52.90;85766.22;5092850;28;20229;-56
2023/12/24 09:42:35;;;;;;;3.17;1.40;;;;;;;-144.30;51.91;85752.28;5093108;28;20237;-54
2023/12/24 09:45:03;;;;;;;2.07;0.80;;;;;;;-144.30;51.41;85796.03;5093766;28;20203;-56
2023/12/24 09:47:31;;;;;;;2.57;0.70;;;;;;;-144.30;51.31;85740.38;5107069;28;20186;-56
2023/12/24 09:50:00;;;;;;;1.47;1.37;;;;;;;-144.30;51.35;85790.06;5113506;28;20214;-56
2023/12/24 09:52:27;;;;;;;1.43;1.00;;;;;;;-144.30;51.75;85780.13;5113934;28;20202;-56
2023/12/24 09:54:55;;;;;;;2.17;0.70;;;;;;;-144.30;52.01;85782.13;5113598;28;20205;-55
2023/12/24 09:57:22;;;;;;;5.10;0.90;;;;;;;-144.30;51.88;85722.47;5113863;28;20205;-53
2023/12/24 09:59:49;;;;;;;3.63;1.20;;;;;;;-144.30;51.41;85766.22;5113689;28;20220;-56
2023/12/24 10:02:16;;;;;;;1.20;1.10;;;;;;;-144.30;51.83;85758.25;5113542;28;20539;-56
2023/12/24 10:04:44;;;;;;;3.93;3.53;;;;;;;-144.30;51.90;85746.31;5113642;28;20234;-56
2023/12/24 10:07:11;;;;;;;3.27;2.53;;;;;;;-144.30;51.62;85778.13;5108473;28;20225;-53
2023/12/24 10:09:45;;;;;;;2.10;1.30;;;;;;;-144.30;51.69;85654.88;5113060;28;20247;-52
2023/12/24 10:12:12;;;;;;;2.80;1.40;;;;;;;-144.30;51.86;85742.34;5113070;28;20722;-53
2023/12/24 10:14:40;;;;;;;2.23;1.00;;;;;;;-144.30;51.96;85770.19;5112929;27;20195;-55
2023/12/24 10:17:07;;;;;;;9.10;1.53;;;;;;;-144.30;51.31;85730.41;5124563;27;20202;-55
2023/12/24 10:19:35;;;;;;;1.80;1.00;;;;;;;-144.30;51.26;85694.63;5112679;28;20230;-55
2023/12/24 10:22:05;;;;;;;3.97;1.13;;;;;;;-144.30;51.46;85716.50;5110978;28;20194;-51
2023/12/24 10:24:34;;;;;;;1.17;1.17;;;;;;;-144.30;51.31;85730.41;5111116;28;20201;-51
2023/12/24 10:27:06;;;;;;;1.00;1.00;;;;;;;-144.30;51.38;85722.47;5111991;28;20442;-57
2023/12/24 10:29:33;;;;;;;1.30;1.27;;;;;;;-144.30;51.42;85668.78;5113361;28;20717;-56
2023/12/24 10:32:00;;;;;;;2.60;1.27;;;;;;;-144.30;50.53;85740.38;5113252;28;20191;-57
2023/12/24 10:34:28;;;;;;;0.80;0.80;;;;;;;-144.30;50.47;85664.81;5113129;28;20262;-57
2023/12/24 10:36:55;;;;;;;0.80;0.70;;;;;;;-144.30;50.68;85710.53;5112162;28;20289;-56
2023/12/24 10:39:26;;;;;;;2.93;1.37;;;;;;;-144.30;50.85;85662.81;5112571;28;20592;-53
2023/12/24 10:41:54;;;;;;;0.80;0.80;;;;;;;-144.30;50.92;85696.63;5111596;28;20234;-56
2023/12/24 10:44:22;;;;;;;1.07;1.07;;;;;;;-144.30;50.63;85642.94;5112060;28;20206;-57
2023/12/24 10:46:49;;;;;;;2.57;1.13;;;;;;;-144.30;50.89;85680.72;5112464;28;20206;-57
2023/12/24 10:49:16;;;;;;;1.63;1.53;;;;;;;-144.30;51.01;85682.72;5112517;28;20575;-56
2023/12/24 10:51:43;;;;;;;5.00;1.40;;;;;;;-144.30;51.13;85464.03;5112340;28;20313;-57
2023/12/24 10:54:11;;;;;;;3.77;1.73;;;;;;;-144.30;50.91;85666.81;5111501;28;20197;-57
2023/12/24 10:56:51;;;;;;;3.80;1.87;;;;;;;-144.30;50.91;85646.91;5111878;28;20292;-55
2023/12/24 10:59:27;;;;;;;2.73;2.37;;;;;;;-144.30;50.66;85646.91;5111828;28;20197;-55
2023/12/24 11:01:55;;;;;;;1.77;1.20;;;;;;;-144.30;50.41;85625.06;5111832;28;20191;-53
2023/12/24 11:04:44;;;;;;;7.90;1.60;;;;;;;-144.30;50.60;85631.03;5112294;28;20218;-53
2023/12/24 11:07:35;;;;;;;1.33;1.23;;;;;;;-144.30;50.43;85680.72;5110380;28;20655;-52
2023/12/24 11:10:03;;;;;;;2.00;1.63;;;;;;;-144.30;50.41;85650.91;5112069;28;20215;-56
2023/12/24 11:12:32;;;;;;;2.47;1.63;;;;;;;-144.30;50.48;85642.94;5111534;28;20202;-53
2023/12/24 11:14:59;;;;;;;1.53;1.43;;;;;;;-144.30;50.29;85638.97;5110581;28;20197;-53
2023/12/24 11:17:49;;;;;;;2.33;2.20;;;;;;;-144.30;50.42;85644.94;5111083;28;20199;-57
2023/12/24 11:20:41;;;;;;;1.83;1.73;;;;;;;-144.30;49.89;85575.34;5107665;28;20220;-56